sensor_id;sensor_type;location;lat;lon;timestamp;temperature;humidity
11615;DHT22;5863;52.832;4.758;2023-03-03T00:01:35;4.30;99.90
11615;DHT22;5863;52.832;4.758;2023-03-03T00:04:02;4.30;99.90
11615;DHT22;5863;52.832;4.758;2023-03-03T00:06:29;4.40;99.90
11615;DHT22;5863;52.832;4.758;2023-03-03T00:08:55;4.40;99.90
11615;DHT22;5863;52.832;4.758;2023-03-03T00:11:22;4.30;99.90
11615;DHT22;5863;52.832;4.758;2023-03-03T00:13:51;4.40;99.90
11615;DHT22;5863;52.832;4.758;2023-03-03T00:16:23;4.30;99.90
11615;DHT22;5863;52.832;4.758;2023-03-03T00:18:52;4.40;99.90
11615;DHT22;5863;52.832;4.758;2023-03-03T00:21:24;4.30;99.90
11615;DHT22;5863;52.832;4.758;2023-03-03T00:23:54;4.40;99.90
11615;DHT22;5863;52.832;4.758;2023-03-03T00:26:27;4.30;99.90
11615;DHT22;5863;52.832;4.758;2023-03-03T00:28:54;4.30;99.90
11615;DHT22;5863;52.832;4.758;2023-03-03T00:31:26;4.20;99.90
11615;DHT22;5863;52.832;4.758;2023-03-03T00:34:02;4.20;99.90
11615;DHT22;5863;52.832;4.758;2023-03-03T00:36:37;4.30;99.90
11615;DHT22;5863;52.832;4.758;2023-03-03T00:39:18;4.30;99.90
11615;DHT22;5863;52.832;4.758;2023-03-03T00:41:47;4.30;99.90
11615;DHT22;5863;52.832;4.758;2023-03-03T00:44:36;4.40;99.90
11615;DHT22;5863;52.832;4.758;2023-03-03T00:47:23;4.40;99.90
11615;DHT22;5863;52.832;4.758;2023-03-03T00:49:52;4.40;99.90
11615;DHT22;5863;52.832;4.758;2023-03-03T00:52:38;4.40;99.90
11615;DHT22;5863;52.832;4.758;2023-03-03T00:55:07;4.30;99.90
11615;DHT22;5863;52.832;4.758;2023-03-03T00:57:33;4.30;99.90
11615;DHT22;5863;52.832;4.758;2023-03-03T01:00:00;4.30;99.90
11615;DHT22;5863;52.832;4.758;2023-03-03T01:02:27;4.20;99.90
11615;DHT22;5863;52.832;4.758;2023-03-03T01:04:55;4.10;99.90
11615;DHT22;5863;52.832;4.758;2023-03-03T01:07:22;4.10;99.90
11615;DHT22;5863;52.832;4.758;2023-03-03T01:09:49;4.20;99.90
11615;DHT22;5863;52.832;4.758;2023-03-03T01:12:16;4.20;99.90
11615;DHT22;5863;52.832;4.758;2023-03-03T01:14:43;4.30;99.90
11615;DHT22;5863;52.832;4.758;2023-03-03T01:17:10;4.30;99.90
11615;DHT22;5863;52.832;4.758;2023-03-03T01:19:45;4.30;99.90
11615;DHT22;5863;52.832;4.758;2023-03-03T01:22:13;4.20;99.90
11615;DHT22;5863;52.832;4.758;2023-03-03T01:24:40;4.10;99.90
11615;DHT22;5863;52.832;4.758;2023-03-03T01:27:06;4.20;99.90
11615;DHT22;5863;52.832;4.758;2023-03-03T01:29:41;4.20;99.90
11615;DHT22;5863;52.832;4.758;2023-03-03T01:32:07;4.40;99.90
11615;DHT22;5863;52.832;4.758;2023-03-03T01:34:34;4.30;99.90
11615;DHT22;5863;52.832;4.758;2023-03-03T01:37:01;4.30;99.90
11615;DHT22;5863;52.832;4.758;2023-03-03T01:39:29;4.30;99.90
11615;DHT22;5863;52.832;4.758;2023-03-03T01:41:55;4.30;99.90
11615;DHT22;5863;52.832;4.758;2023-03-03T01:44:22;4.30;99.90
11615;DHT22;5863;52.832;4.758;2023-03-03T01:46:53;4.30;99.90
11615;DHT22;5863;52.832;4.758;2023-03-03T01:49:22;4.30;99.90
11615;DHT22;5863;52.832;4.758;2023-03-03T01:51:58;4.30;99.90
11615;DHT22;5863;52.832;4.758;2023-03-03T01:54:29;4.30;99.90
11615;DHT22;5863;52.832;4.758;2023-03-03T01:57:04;4.30;99.90
11615;DHT22;5863;52.832;4.758;2023-03-03T01:59:34;4.30;99.90
11615;DHT22;5863;52.832;4.758;2023-03-03T02:02:03;4.30;99.90
11615;DHT22;5863;52.832;4.758;2023-03-03T02:04:30;4.30;99.90
11615;DHT22;5863;52.832;4.758;2023-03-03T02:06:58;4.30;99.90
11615;DHT22;5863;52.832;4.758;2023-03-03T02:09:31;4.20;99.90
11615;DHT22;5863;52.832;4.758;2023-03-03T02:12:04;4.20;99.90
11615;DHT22;5863;52.832;4.758;2023-03-03T02:14:32;4.20;99.90
11615;DHT22;5863;52.832;4.758;2023-03-03T02:16:59;4.20;99.90
11615;DHT22;5863;52.832;4.758;2023-03-03T02:19:33;4.20;99.90
11615;DHT22;5863;52.832;4.758;2023-03-03T02:22:01;4.20;99.90
11615;DHT22;5863;52.832;4.758;2023-03-03T02:24:36;4.30;99.90
11615;DHT22;5863;52.832;4.758;2023-03-03T02:27:08;4.30;99.90
11615;DHT22;5863;52.832;4.758;2023-03-03T02:29:35;4.30;99.90
11615;DHT22;5863;52.832;4.758;2023-03-03T02:32:01;4.30;99.90
11615;DHT22;5863;52.832;4.758;2023-03-03T02:34:28;4.30;99.90
11615;DHT22;5863;52.832;4.758;2023-03-03T02:36:56;4.20;99.90
11615;DHT22;5863;52.832;4.758;2023-03-03T02:39:24;4.20;99.90
11615;DHT22;5863;52.832;4.758;2023-03-03T02:41:54;4.20;99.90
11615;DHT22;5863;52.832;4.758;2023-03-03T02:44:25;4.20;99.90
11615;DHT22;5863;52.832;4.758;2023-03-03T02:46:53;4.20;99.90
11615;DHT22;5863;52.832;4.758;2023-03-03T02:49:22;4.20;99.90
11615;DHT22;5863;52.832;4.758;2023-03-03T02:51:49;4.20;99.90
11615;DHT22;5863;52.832;4.758;2023-03-03T02:54:18;4.20;99.90
11615;DHT22;5863;52.832;4.758;2023-03-03T02:56:45;4.30;99.90
11615;DHT22;5863;52.832;4.758;2023-03-03T02:59:12;4.30;99.90
11615;DHT22;5863;52.832;4.758;2023-03-03T03:01:41;4.10;99.90
11615;DHT22;5863;52.832;4.758;2023-03-03T03:04:10;4.30;99.90
11615;DHT22;5863;52.832;4.758;2023-03-03T03:06:37;4.30;99.90
11615;DHT22;5863;52.832;4.758;2023-03-03T03:09:05;4.30;99.90
11615;DHT22;5863;52.832;4.758;2023-03-03T03:11:32;4.30;99.90
11615;DHT22;5863;52.832;4.758;2023-03-03T03:13:59;4.30;99.90
11615;DHT22;5863;52.832;4.758;2023-03-03T03:16:26;4.30;99.90
11615;DHT22;5863;52.832;4.758;2023-03-03T03:18:54;4.30;99.90
11615;DHT22;5863;52.832;4.758;2023-03-03T03:21:21;4.40;99.90
11615;DHT22;5863;52.832;4.758;2023-03-03T03:23:47;4.30;99.90
11615;DHT22;5863;52.832;4.758;2023-03-03T03:26:14;4.30;99.90
11615;DHT22;5863;52.832;4.758;2023-03-03T03:28:41;4.20;99.90
11615;DHT22;5863;52.832;4.758;2023-03-03T03:31:08;4.30;99.90
11615;DHT22;5863;52.832;4.758;2023-03-03T03:33:35;4.30;99.90
11615;DHT22;5863;52.832;4.758;2023-03-03T03:36:04;4.30;99.90
11615;DHT22;5863;52.832;4.758;2023-03-03T03:38:32;4.40;99.90
11615;DHT22;5863;52.832;4.758;2023-03-03T03:41:01;4.30;99.90
11615;DHT22;5863;52.832;4.758;2023-03-03T03:43:28;4.30;99.90
11615;DHT22;5863;52.832;4.758;2023-03-03T03:45:55;4.30;99.90
11615;DHT22;5863;52.832;4.758;2023-03-03T03:48:21;4.40;99.90
11615;DHT22;5863;52.832;4.758;2023-03-03T03:50:48;4.40;99.90
11615;DHT22;5863;52.832;4.758;2023-03-03T03:53:17;4.50;99.90
11615;DHT22;5863;52.832;4.758;2023-03-03T03:55:44;4.40;99.90
11615;DHT22;5863;52.832;4.758;2023-03-03T03:58:12;4.40;99.90
11615;DHT22;5863;52.832;4.758;2023-03-03T04:00:39;4.40;99.90
11615;DHT22;5863;52.832;4.758;2023-03-03T04:03:07;4.40;99.90
11615;DHT22;5863;52.832;4.758;2023-03-03T04:05:35;4.40;99.90
11615;DHT22;5863;52.832;4.758;2023-03-03T04:08:02;4.40;99.90
11615;DHT22;5863;52.832;4.758;2023-03-03T04:10:31;4.40;99.90
11615;DHT22;5863;52.832;4.758;2023-03-03T04:12:57;4.40;99.90
11615;DHT22;5863;52.832;4.758;2023-03-03T04:15:24;4.50;99.90
11615;DHT22;5863;52.832;4.758;2023-03-03T04:17:51;4.50;99.90
11615;DHT22;5863;52.832;4.758;2023-03-03T04:20:18;4.50;99.90
11615;DHT22;5863;52.832;4.758;2023-03-03T04:22:44;4.50;99.90
11615;DHT22;5863;52.832;4.758;2023-03-03T04:25:13;4.50;99.90
11615;DHT22;5863;52.832;4.758;2023-03-03T04:27:42;4.50;99.90
11615;DHT22;5863;52.832;4.758;2023-03-03T04:30:10;4.50;99.90
11615;DHT22;5863;52.832;4.758;2023-03-03T04:32:37;4.50;99.90
11615;DHT22;5863;52.832;4.758;2023-03-03T04:35:05;4.50;99.90
11615;DHT22;5863;52.832;4.758;2023-03-03T04:37:31;4.50;99.90
11615;DHT22;5863;52.832;4.758;2023-03-03T04:40:00;4.50;99.90
11615;DHT22;5863;52.832;4.758;2023-03-03T04:42:27;4.40;99.90
11615;DHT22;5863;52.832;4.758;2023-03-03T04:44:55;4.50;99.90
11615;DHT22;5863;52.832;4.758;2023-03-03T04:47:22;4.50;99.90
11615;DHT22;5863;52.832;4.758;2023-03-03T04:49:52;4.50;99.90
11615;DHT22;5863;52.832;4.758;2023-03-03T04:52:18;4.50;99.90
11615;DHT22;5863;52.832;4.758;2023-03-03T04:54:45;4.50;99.90
11615;DHT22;5863;52.832;4.758;2023-03-03T04:57:12;4.40;99.90
11615;DHT22;5863;52.832;4.758;2023-03-03T04:59:38;4.50;99.90
11615;DHT22;5863;52.832;4.758;2023-03-03T05:02:09;4.40;99.90
11615;DHT22;5863;52.832;4.758;2023-03-03T05:04:37;4.50;99.90
11615;DHT22;5863;52.832;4.758;2023-03-03T05:07:07;4.50;99.90
11615;DHT22;5863;52.832;4.758;2023-03-03T05:09:34;4.50;99.90
11615;DHT22;5863;52.832;4.758;2023-03-03T05:12:01;4.50;99.90
11615;DHT22;5863;52.832;4.758;2023-03-03T05:14:28;4.50;99.90
11615;DHT22;5863;52.832;4.758;2023-03-03T05:16:55;4.40;99.90
11615;DHT22;5863;52.832;4.758;2023-03-03T05:19:24;4.40;99.90
11615;DHT22;5863;52.832;4.758;2023-03-03T05:21:50;4.50;99.90
11615;DHT22;5863;52.832;4.758;2023-03-03T05:24:17;4.50;99.90
11615;DHT22;5863;52.832;4.758;2023-03-03T05:26:44;4.50;99.90
11615;DHT22;5863;52.832;4.758;2023-03-03T05:29:13;4.40;99.90
11615;DHT22;5863;52.832;4.758;2023-03-03T05:31:39;4.40;99.90
11615;DHT22;5863;52.832;4.758;2023-03-03T05:34:06;4.40;99.90
11615;DHT22;5863;52.832;4.758;2023-03-03T05:36:34;4.30;99.90
11615;DHT22;5863;52.832;4.758;2023-03-03T05:39:01;4.40;99.90
11615;DHT22;5863;52.832;4.758;2023-03-03T05:41:27;4.50;99.90
11615;DHT22;5863;52.832;4.758;2023-03-03T05:43:54;4.50;99.90
11615;DHT22;5863;52.832;4.758;2023-03-03T05:46:21;4.50;99.90
11615;DHT22;5863;52.832;4.758;2023-03-03T05:48:48;4.50;99.90
11615;DHT22;5863;52.832;4.758;2023-03-03T05:51:15;4.50;99.90
11615;DHT22;5863;52.832;4.758;2023-03-03T05:53:43;4.40;99.90
11615;DHT22;5863;52.832;4.758;2023-03-03T05:56:10;4.40;99.90
11615;DHT22;5863;52.832;4.758;2023-03-03T05:58:36;4.30;99.90
11615;DHT22;5863;52.832;4.758;2023-03-03T06:01:03;4.30;99.90
11615;DHT22;5863;52.832;4.758;2023-03-03T06:03:31;4.20;99.90
11615;DHT22;5863;52.832;4.758;2023-03-03T06:05:58;4.20;99.90
11615;DHT22;5863;52.832;4.758;2023-03-03T06:08:26;4.20;99.90
11615;DHT22;5863;52.832;4.758;2023-03-03T06:10:55;4.20;99.90
11615;DHT22;5863;52.832;4.758;2023-03-03T06:13:21;4.30;99.90
11615;DHT22;5863;52.832;4.758;2023-03-03T06:15:48;4.30;99.90
11615;DHT22;5863;52.832;4.758;2023-03-03T06:18:18;4.30;99.90
11615;DHT22;5863;52.832;4.758;2023-03-03T06:20:49;4.20;99.90
11615;DHT22;5863;52.832;4.758;2023-03-03T06:23:17;4.20;99.90
11615;DHT22;5863;52.832;4.758;2023-03-03T06:25:43;4.20;99.90
11615;DHT22;5863;52.832;4.758;2023-03-03T06:28:12;4.30;99.90
11615;DHT22;5863;52.832;4.758;2023-03-03T06:30:39;4.30;99.90
11615;DHT22;5863;52.832;4.758;2023-03-03T06:33:06;4.10;99.90
11615;DHT22;5863;52.832;4.758;2023-03-03T06:35:33;4.10;99.90
11615;DHT22;5863;52.832;4.758;2023-03-03T06:38:01;4.10;99.90
11615;DHT22;5863;52.832;4.758;2023-03-03T06:40:28;4.20;99.90
11615;DHT22;5863;52.832;4.758;2023-03-03T06:42:55;4.10;99.90
11615;DHT22;5863;52.832;4.758;2023-03-03T06:45:23;4.10;99.90
11615;DHT22;5863;52.832;4.758;2023-03-03T06:47:50;4.10;99.90
11615;DHT22;5863;52.832;4.758;2023-03-03T06:50:19;4.10;99.90
11615;DHT22;5863;52.832;4.758;2023-03-03T06:52:46;4.20;99.90
11615;DHT22;5863;52.832;4.758;2023-03-03T06:55:17;4.20;99.90
11615;DHT22;5863;52.832;4.758;2023-03-03T06:57:47;4.20;99.90
11615;DHT22;5863;52.832;4.758;2023-03-03T07:00:16;4.20;99.90
11615;DHT22;5863;52.832;4.758;2023-03-03T07:02:46;4.30;99.90
11615;DHT22;5863;52.832;4.758;2023-03-03T07:05:15;4.40;99.90
11615;DHT22;5863;52.832;4.758;2023-03-03T07:07:45;4.40;99.90
11615;DHT22;5863;52.832;4.758;2023-03-03T07:10:19;4.40;99.90
11615;DHT22;5863;52.832;4.758;2023-03-03T07:12:47;4.50;99.90
11615;DHT22;5863;52.832;4.758;2023-03-03T07:15:16;4.60;99.90
11615;DHT22;5863;52.832;4.758;2023-03-03T07:17:48;4.70;99.90
11615;DHT22;5863;52.832;4.758;2023-03-03T07:20:18;4.70;99.90
11615;DHT22;5863;52.832;4.758;2023-03-03T07:22:46;4.90;99.90
11615;DHT22;5863;52.832;4.758;2023-03-03T07:25:20;5.00;99.90
11615;DHT22;5863;52.832;4.758;2023-03-03T07:27:48;5.00;99.90
11615;DHT22;5863;52.832;4.758;2023-03-03T07:30:25;5.10;99.90
11615;DHT22;5863;52.832;4.758;2023-03-03T07:32:57;5.10;99.90
11615;DHT22;5863;52.832;4.758;2023-03-03T07:35:39;5.30;99.90
11615;DHT22;5863;52.832;4.758;2023-03-03T07:38:28;5.40;99.90
11615;DHT22;5863;52.832;4.758;2023-03-03T07:40:58;5.30;99.90
11615;DHT22;5863;52.832;4.758;2023-03-03T07:43:34;5.30;99.90
11615;DHT22;5863;52.832;4.758;2023-03-03T07:46:22;5.40;99.90
11615;DHT22;5863;52.832;4.758;2023-03-03T07:48:54;5.90;99.90
11615;DHT22;5863;52.832;4.758;2023-03-03T07:51:24;6.20;99.90
11615;DHT22;5863;52.832;4.758;2023-03-03T07:53:53;6.30;99.90
11615;DHT22;5863;52.832;4.758;2023-03-03T07:56:29;6.60;99.90
11615;DHT22;5863;52.832;4.758;2023-03-03T07:59:02;6.90;99.90
11615;DHT22;5863;52.832;4.758;2023-03-03T08:01:38;7.00;99.90
11615;DHT22;5863;52.832;4.758;2023-03-03T08:04:22;7.30;99.90
11615;DHT22;5863;52.832;4.758;2023-03-03T08:06:52;7.90;99.90
11615;DHT22;5863;52.832;4.758;2023-03-03T08:09:40;8.30;99.90
11615;DHT22;5863;52.832;4.758;2023-03-03T08:12:37;8.60;99.90
11615;DHT22;5863;52.832;4.758;2023-03-03T08:15:21;8.50;99.90
11615;DHT22;5863;52.832;4.758;2023-03-03T08:17:49;8.70;99.90
11615;DHT22;5863;52.832;4.758;2023-03-03T08:20:41;8.90;99.90
11615;DHT22;5863;52.832;4.758;2023-03-03T08:23:09;8.90;99.90
11615;DHT22;5863;52.832;4.758;2023-03-03T08:25:36;8.90;99.90
11615;DHT22;5863;52.832;4.758;2023-03-03T08:28:03;9.00;99.90
11615;DHT22;5863;52.832;4.758;2023-03-03T08:30:30;9.00;99.90
11615;DHT22;5863;52.832;4.758;2023-03-03T08:32:59;9.30;99.90
11615;DHT22;5863;52.832;4.758;2023-03-03T08:35:26;9.60;99.90
11615;DHT22;5863;52.832;4.758;2023-03-03T08:37:55;9.60;99.90
11615;DHT22;5863;52.832;4.758;2023-03-03T08:40:21;9.50;99.90
11615;DHT22;5863;52.832;4.758;2023-03-03T08:42:48;9.60;99.90
11615;DHT22;5863;52.832;4.758;2023-03-03T08:45:15;9.60;99.90
11615;DHT22;5863;52.832;4.758;2023-03-03T08:47:41;9.50;99.90
11615;DHT22;5863;52.832;4.758;2023-03-03T08:50:09;9.30;99.90
11615;DHT22;5863;52.832;4.758;2023-03-03T08:52:36;9.30;99.90
11615;DHT22;5863;52.832;4.758;2023-03-03T08:55:04;9.10;99.90
11615;DHT22;5863;52.832;4.758;2023-03-03T08:57:31;9.00;99.90
11615;DHT22;5863;52.832;4.758;2023-03-03T08:59:57;8.80;99.90
11615;DHT22;5863;52.832;4.758;2023-03-03T09:02:24;8.80;99.90
11615;DHT22;5863;52.832;4.758;2023-03-03T09:04:51;8.70;99.90
11615;DHT22;5863;52.832;4.758;2023-03-03T09:07:17;8.60;99.90
11615;DHT22;5863;52.832;4.758;2023-03-03T09:09:45;8.50;99.90
11615;DHT22;5863;52.832;4.758;2023-03-03T09:12:17;8.60;99.90
11615;DHT22;5863;52.832;4.758;2023-03-03T09:14:44;8.60;99.90
11615;DHT22;5863;52.832;4.758;2023-03-03T09:17:22;8.60;99.90
11615;DHT22;5863;52.832;4.758;2023-03-03T09:19:49;8.70;99.90
11615;DHT22;5863;52.832;4.758;2023-03-03T09:22:19;8.80;99.90
11615;DHT22;5863;52.832;4.758;2023-03-03T09:24:48;8.90;99.90
11615;DHT22;5863;52.832;4.758;2023-03-03T09:27:19;8.80;99.90
11615;DHT22;5863;52.832;4.758;2023-03-03T09:29:49;8.80;99.90
11615;DHT22;5863;52.832;4.758;2023-03-03T09:32:25;8.80;99.90
11615;DHT22;5863;52.832;4.758;2023-03-03T09:34:55;8.80;99.90
11615;DHT22;5863;52.832;4.758;2023-03-03T09:37:24;8.70;99.90
11615;DHT22;5863;52.832;4.758;2023-03-03T09:39:54;8.60;99.90
11615;DHT22;5863;52.832;4.758;2023-03-03T09:42:48;8.60;99.90
11615;DHT22;5863;52.832;4.758;2023-03-03T09:45:42;8.70;99.90
11615;DHT22;5863;52.832;4.758;2023-03-03T09:48:31;8.70;99.90
11615;DHT22;5863;52.832;4.758;2023-03-03T09:53:57;8.70;99.90
11615;DHT22;5863;52.832;4.758;2023-03-03T09:56:32;8.70;99.90
11615;DHT22;5863;52.832;4.758;2023-03-03T09:59:12;8.70;99.90
11615;DHT22;5863;52.832;4.758;2023-03-03T10:01:59;8.60;99.90
11615;DHT22;5863;52.832;4.758;2023-03-03T10:05:04;8.60;99.90
11615;DHT22;5863;52.832;4.758;2023-03-03T10:07:41;8.50;99.90
11615;DHT22;5863;52.832;4.758;2023-03-03T10:10:27;8.50;99.90
11615;DHT22;5863;52.832;4.758;2023-03-03T10:13:08;8.60;99.90
11615;DHT22;5863;52.832;4.758;2023-03-03T10:15:51;8.60;99.90
11615;DHT22;5863;52.832;4.758;2023-03-03T10:18:28;8.60;99.90
11615;DHT22;5863;52.832;4.758;2023-03-03T10:21:03;8.50;99.90
11615;DHT22;5863;52.832;4.758;2023-03-03T10:23:52;8.50;99.90
11615;DHT22;5863;52.832;4.758;2023-03-03T10:29:15;8.40;99.90
11615;DHT22;5863;52.832;4.758;2023-03-03T10:31:57;8.40;99.90
11615;DHT22;5863;52.832;4.758;2023-03-03T10:34:40;8.40;99.90
11615;DHT22;5863;52.832;4.758;2023-03-03T10:37:14;8.50;99.90
11615;DHT22;5863;52.832;4.758;2023-03-03T10:39:56;8.50;99.90
11615;DHT22;5863;52.832;4.758;2023-03-03T10:42:49;8.50;99.90
11615;DHT22;5863;52.832;4.758;2023-03-03T10:45:39;8.50;99.90
11615;DHT22;5863;52.832;4.758;2023-03-03T10:48:22;8.50;99.90
11615;DHT22;5863;52.832;4.758;2023-03-03T10:50:57;8.60;99.90
11615;DHT22;5863;52.832;4.758;2023-03-03T10:53:31;8.60;99.90
11615;DHT22;5863;52.832;4.758;2023-03-03T10:56:11;8.50;99.90
11615;DHT22;5863;52.832;4.758;2023-03-03T10:58:54;8.50;99.90
11615;DHT22;5863;52.832;4.758;2023-03-03T11:01:32;8.50;99.90
11615;DHT22;5863;52.832;4.758;2023-03-03T11:04:24;8.50;99.90
11615;DHT22;5863;52.832;4.758;2023-03-03T11:06:57;8.50;99.90
11615;DHT22;5863;52.832;4.758;2023-03-03T11:09:36;8.50;99.90
11615;DHT22;5863;52.832;4.758;2023-03-03T11:12:15;8.60;99.90
11615;DHT22;5863;52.832;4.758;2023-03-03T11:14:53;8.50;99.90
11615;DHT22;5863;52.832;4.758;2023-03-03T11:17:28;8.50;99.90
11615;DHT22;5863;52.832;4.758;2023-03-03T11:20:23;8.60;99.90
11615;DHT22;5863;52.832;4.758;2023-03-03T11:22:55;8.60;99.90
11615;DHT22;5863;52.832;4.758;2023-03-03T11:25:27;8.70;99.90
11615;DHT22;5863;52.832;4.758;2023-03-03T11:28:23;8.70;99.90
11615;DHT22;5863;52.832;4.758;2023-03-03T11:31:09;8.60;99.90
11615;DHT22;5863;52.832;4.758;2023-03-03T11:33:43;8.60;99.90
11615;DHT22;5863;52.832;4.758;2023-03-03T11:36:21;8.70;99.90
11615;DHT22;5863;52.832;4.758;2023-03-03T11:38:53;8.80;99.90
11615;DHT22;5863;52.832;4.758;2023-03-03T11:41:35;8.80;99.90
11615;DHT22;5863;52.832;4.758;2023-03-03T11:44:09;8.80;99.90
11615;DHT22;5863;52.832;4.758;2023-03-03T11:46:45;8.90;99.90
11615;DHT22;5863;52.832;4.758;2023-03-03T11:49:17;8.90;99.90
11615;DHT22;5863;52.832;4.758;2023-03-03T11:51:54;9.00;99.90
11615;DHT22;5863;52.832;4.758;2023-03-03T11:54:27;9.00;99.90
11615;DHT22;5863;52.832;4.758;2023-03-03T11:57:06;9.00;99.90
11615;DHT22;5863;52.832;4.758;2023-03-03T11:59:48;9.00;99.90
11615;DHT22;5863;52.832;4.758;2023-03-03T12:02:26;9.10;99.90
11615;DHT22;5863;52.832;4.758;2023-03-03T12:04:58;9.10;99.90
11615;DHT22;5863;52.832;4.758;2023-03-03T12:07:33;9.10;99.90
11615;DHT22;5863;52.832;4.758;2023-03-03T12:10:13;9.00;99.90
11615;DHT22;5863;52.832;4.758;2023-03-03T12:12:44;9.00;99.90
11615;DHT22;5863;52.832;4.758;2023-03-03T12:15:19;9.10;99.90
11615;DHT22;5863;52.832;4.758;2023-03-03T12:18:00;9.10;99.90
11615;DHT22;5863;52.832;4.758;2023-03-03T12:20:34;9.20;99.90
11615;DHT22;5863;52.832;4.758;2023-03-03T12:23:16;9.30;99.90
11615;DHT22;5863;52.832;4.758;2023-03-03T12:25:48;9.30;99.90
11615;DHT22;5863;52.832;4.758;2023-03-03T12:28:17;9.30;99.90
11615;DHT22;5863;52.832;4.758;2023-03-03T12:31:04;9.30;99.90
11615;DHT22;5863;52.832;4.758;2023-03-03T12:33:49;9.30;99.90
11615;DHT22;5863;52.832;4.758;2023-03-03T12:36:29;9.30;99.90
11615;DHT22;5863;52.832;4.758;2023-03-03T12:39:05;9.30;99.90
11615;DHT22;5863;52.832;4.758;2023-03-03T12:41:41;9.40;99.90
11615;DHT22;5863;52.832;4.758;2023-03-03T12:44:17;9.40;99.90
11615;DHT22;5863;52.832;4.758;2023-03-03T12:46:50;9.50;99.90
11615;DHT22;5863;52.832;4.758;2023-03-03T12:49:19;9.50;99.90
11615;DHT22;5863;52.832;4.758;2023-03-03T12:51:59;9.40;99.90
11615;DHT22;5863;52.832;4.758;2023-03-03T12:55:01;9.30;99.90
11615;DHT22;5863;52.832;4.758;2023-03-03T12:57:34;9.30;99.90
11615;DHT22;5863;52.832;4.758;2023-03-03T13:00:21;9.30;99.90
11615;DHT22;5863;52.832;4.758;2023-03-03T13:02:59;9.40;99.90
11615;DHT22;5863;52.832;4.758;2023-03-03T13:05:34;9.50;99.90
11615;DHT22;5863;52.832;4.758;2023-03-03T13:08:21;9.60;99.90
11615;DHT22;5863;52.832;4.758;2023-03-03T13:11:00;9.60;99.90
11615;DHT22;5863;52.832;4.758;2023-03-03T13:13:36;9.60;99.90
11615;DHT22;5863;52.832;4.758;2023-03-03T13:16:10;9.70;99.90
11615;DHT22;5863;52.832;4.758;2023-03-03T13:18:47;9.60;99.90
11615;DHT22;5863;52.832;4.758;2023-03-03T13:21:21;9.80;99.90
11615;DHT22;5863;52.832;4.758;2023-03-03T13:23:53;9.80;99.90
11615;DHT22;5863;52.832;4.758;2023-03-03T13:26:26;9.80;99.90
11615;DHT22;5863;52.832;4.758;2023-03-03T13:29:02;9.70;99.90
11615;DHT22;5863;52.832;4.758;2023-03-03T13:31:32;9.70;99.90
11615;DHT22;5863;52.832;4.758;2023-03-03T13:34:00;9.70;99.90
11615;DHT22;5863;52.832;4.758;2023-03-03T13:36:32;9.60;99.90
11615;DHT22;5863;52.832;4.758;2023-03-03T13:39:03;9.70;99.90
11615;DHT22;5863;52.832;4.758;2023-03-03T13:41:42;9.60;99.90
11615;DHT22;5863;52.832;4.758;2023-03-03T13:44:12;9.70;99.90
11615;DHT22;5863;52.832;4.758;2023-03-03T13:46:47;9.70;99.90
11615;DHT22;5863;52.832;4.758;2023-03-03T13:49:39;9.80;99.90
11615;DHT22;5863;52.832;4.758;2023-03-03T13:52:11;9.90;99.90
11615;DHT22;5863;52.832;4.758;2023-03-03T13:55:06;10.00;99.90
11615;DHT22;5863;52.832;4.758;2023-03-03T13:57:43;10.00;99.90
11615;DHT22;5863;52.832;4.758;2023-03-03T14:00:20;9.90;99.90
11615;DHT22;5863;52.832;4.758;2023-03-03T14:03:10;9.90;99.90
11615;DHT22;5863;52.832;4.758;2023-03-03T14:05:44;9.90;99.90
11615;DHT22;5863;52.832;4.758;2023-03-03T14:08:18;9.90;99.90
11615;DHT22;5863;52.832;4.758;2023-03-03T14:10:50;9.90;99.90
11615;DHT22;5863;52.832;4.758;2023-03-03T14:13:28;9.90;99.90
11615;DHT22;5863;52.832;4.758;2023-03-03T14:16:00;9.80;99.90
11615;DHT22;5863;52.832;4.758;2023-03-03T14:18:34;9.80;99.90
11615;DHT22;5863;52.832;4.758;2023-03-03T14:21:08;9.80;99.90
11615;DHT22;5863;52.832;4.758;2023-03-03T14:23:47;9.80;99.90
11615;DHT22;5863;52.832;4.758;2023-03-03T14:26:15;9.80;99.90
11615;DHT22;5863;52.832;4.758;2023-03-03T14:28:44;9.80;99.90
11615;DHT22;5863;52.832;4.758;2023-03-03T14:31:20;9.80;99.90
11615;DHT22;5863;52.832;4.758;2023-03-03T14:33:57;9.70;99.90
11615;DHT22;5863;52.832;4.758;2023-03-03T14:36:27;9.70;99.90
11615;DHT22;5863;52.832;4.758;2023-03-03T14:38:54;9.70;99.90
11615;DHT22;5863;52.832;4.758;2023-03-03T14:41:34;9.70;99.90
11615;DHT22;5863;52.832;4.758;2023-03-03T14:44:23;9.70;99.90
11615;DHT22;5863;52.832;4.758;2023-03-03T14:47:04;9.60;99.90
11615;DHT22;5863;52.832;4.758;2023-03-03T14:49:35;9.60;99.90
11615;DHT22;5863;52.832;4.758;2023-03-03T14:52:20;9.50;99.90
11615;DHT22;5863;52.832;4.758;2023-03-03T14:54:49;9.40;99.90
11615;DHT22;5863;52.832;4.758;2023-03-03T14:57:18;9.30;99.90
11615;DHT22;5863;52.832;4.758;2023-03-03T14:59:57;9.10;99.90
11615;DHT22;5863;52.832;4.758;2023-03-03T15:02:35;9.10;99.90
11615;DHT22;5863;52.832;4.758;2023-03-03T15:05:21;9.00;99.90
11615;DHT22;5863;52.832;4.758;2023-03-03T15:07:51;8.90;99.90
11615;DHT22;5863;52.832;4.758;2023-03-03T15:10:33;8.90;99.90
11615;DHT22;5863;52.832;4.758;2023-03-03T15:13:28;8.90;99.90
11615;DHT22;5863;52.832;4.758;2023-03-03T15:16:04;8.90;99.90
11615;DHT22;5863;52.832;4.758;2023-03-03T15:18:51;8.70;99.90
11615;DHT22;5863;52.832;4.758;2023-03-03T15:21:24;8.60;99.90
11615;DHT22;5863;52.832;4.758;2023-03-03T15:23:55;8.60;99.90
11615;DHT22;5863;52.832;4.758;2023-03-03T15:26:31;8.50;99.90
11615;DHT22;5863;52.832;4.758;2023-03-03T15:29:06;8.60;99.90
11615;DHT22;5863;52.832;4.758;2023-03-03T15:31:41;8.60;99.90
11615;DHT22;5863;52.832;4.758;2023-03-03T15:34:25;8.60;99.90
11615;DHT22;5863;52.832;4.758;2023-03-03T15:36:58;8.70;99.90
11615;DHT22;5863;52.832;4.758;2023-03-03T15:39:33;8.70;99.90
11615;DHT22;5863;52.832;4.758;2023-03-03T15:42:23;8.70;99.90
11615;DHT22;5863;52.832;4.758;2023-03-03T15:44:58;8.70;99.90
11615;DHT22;5863;52.832;4.758;2023-03-03T15:47:42;8.70;99.90
11615;DHT22;5863;52.832;4.758;2023-03-03T15:50:42;8.60;99.90
11615;DHT22;5863;52.832;4.758;2023-03-03T15:53:32;8.70;99.90
11615;DHT22;5863;52.832;4.758;2023-03-03T15:56:11;8.60;99.90
11615;DHT22;5863;52.832;4.758;2023-03-03T15:59:08;8.60;99.90
11615;DHT22;5863;52.832;4.758;2023-03-03T16:01:40;8.60;99.90
11615;DHT22;5863;52.832;4.758;2023-03-03T16:04:13;8.60;99.90
11615;DHT22;5863;52.832;4.758;2023-03-03T16:06:47;8.60;99.90
11615;DHT22;5863;52.832;4.758;2023-03-03T16:09:35;8.50;99.90
11615;DHT22;5863;52.832;4.758;2023-03-03T16:12:12;8.50;99.90
11615;DHT22;5863;52.832;4.758;2023-03-03T16:14:53;8.40;99.90
11615;DHT22;5863;52.832;4.758;2023-03-03T16:17:26;8.40;99.90
11615;DHT22;5863;52.832;4.758;2023-03-03T16:20:06;8.40;99.90
11615;DHT22;5863;52.832;4.758;2023-03-03T16:22:59;8.40;99.90
11615;DHT22;5863;52.832;4.758;2023-03-03T16:25:52;8.40;99.90
11615;DHT22;5863;52.832;4.758;2023-03-03T16:28:25;8.40;99.90
11615;DHT22;5863;52.832;4.758;2023-03-03T16:31:00;8.30;99.90
11615;DHT22;5863;52.832;4.758;2023-03-03T16:33:55;8.30;99.90
11615;DHT22;5863;52.832;4.758;2023-03-03T16:36:31;8.30;99.90
11615;DHT22;5863;52.832;4.758;2023-03-03T16:39:04;8.20;99.90
11615;DHT22;5863;52.832;4.758;2023-03-03T16:41:43;8.20;99.90
11615;DHT22;5863;52.832;4.758;2023-03-03T16:44:19;8.20;99.90
11615;DHT22;5863;52.832;4.758;2023-03-03T16:46:50;8.20;99.90